Time;durP1;ratioP1;P1;durP2;ratioP2;P2;SDS_P1;SDS_P2;PMS_P1;PMS_P2;Temp;Humidity;BMP_temperature;BMP_pressure;BME280_temperature;BME280_humidity;BME280_pressure;Samples;Min_cycle;Max_cycle;Signal;HPM_P1;HPM_P2
2021/08/19 00:01:18;;;;;;;5.25;3.72;;;;;;;15.17;69.13;100867.19;5046782;28;20098;-85
2021/08/19 00:03:46;;;;;;;5.38;3.28;;;;;;;15.13;68.99;100863.53;5031403;28;20186;-85
2021/08/19 00:06:14;;;;;;;5.97;3.25;;;;;;;15.10;69.18;100866.25;5047250;28;20510;-85
2021/08/19 00:08:42;;;;;;;5.15;3.05;;;;;;;15.04;69.27;100856.59;5040317;28;20165;-83
2021/08/19 00:11:11;;;;;;;5.53;3.22;;;;;;;14.96;69.47;100861.22;5047660;28;20139;-84
2021/08/19 00:13:39;;;;;;;4.78;3.17;;;;;;;14.89;69.72;100855.53;5046029;28;20102;-84
2021/08/19 00:16:09;;;;;;;6.57;2.90;;;;;;;14.83;69.59;100857.03;5060618;28;20049;-84
2021/08/19 00:18:38;;;;;;;5.00;3.13;;;;;;;14.78;69.93;100850.94;5044676;28;20518;-83
2021/08/19 00:21:05;;;;;;;7.18;2.95;;;;;;;14.74;70.11;100853.69;5047226;28;20724;-84
2021/08/19 00:23:35;;;;;;;4.82;2.80;;;;;;;14.69;70.25;100842.84;5045517;28;20115;-85
2021/08/19 00:26:03;;;;;;;5.68;2.85;;;;;;;14.69;70.13;100845.63;5063904;28;20416;-84
2021/08/19 00:28:30;;;;;;;4.82;2.78;;;;;;;14.64;70.32;100838.38;5046042;28;20096;-84
2021/08/19 00:30:57;;;;;;;6.18;3.00;;;;;;;14.62;70.38;100834.34;5065256;28;20044;-84
2021/08/19 00:33:25;;;;;;;4.55;2.80;;;;;;;14.58;70.58;100834.28;5047541;28;20056;-84
2021/08/19 00:35:52;;;;;;;5.43;3.50;;;;;;;14.55;70.48;100828.66;5047351;28;20048;-84
2021/08/19 00:38:18;;;;;;;5.57;2.92;;;;;;;14.53;70.79;100825.44;5045352;28;22184;-84
2021/08/19 00:40:46;;;;;;;4.78;3.35;;;;;;;14.51;70.76;100828.56;5047559;28;20452;-84
2021/08/19 00:43:13;;;;;;;5.03;3.10;;;;;;;14.54;70.67;100825.06;5063772;28;20062;-85
2021/08/19 00:45:40;;;;;;;7.22;4.07;;;;;;;14.64;70.67;100818.06;5047752;28;20043;-85
2021/08/19 00:48:08;;;;;;;6.28;3.13;;;;;;;14.80;70.68;100829.88;5046938;28;20135;-84
2021/08/19 00:50:37;;;;;;;5.43;3.10;;;;;;;14.92;70.43;100826.94;5047910;28;20083;-84
2021/08/19 00:53:09;;;;;;;5.38;2.90;;;;;;;15.00;70.46;100825.88;5065099;28;20043;-84
2021/08/19 00:55:36;;;;;;;5.05;3.10;;;;;;;15.07;70.22;100823.19;5064378;28;20059;-84
2021/08/19 00:58:03;;;;;;;4.45;2.60;;;;;;;15.08;70.36;100816.44;5065087;28;20129;-84
2021/08/19 01:00:30;;;;;;;7.18;3.25;;;;;;;15.05;70.47;100814.41;5041190;28;20040;-84
2021/08/19 01:02:58;;;;;;;4.65;3.28;;;;;;;15.05;70.51;100817.19;5063665;28;20542;-84
2021/08/19 01:05:30;;;;;;;4.43;2.80;;;;;;;15.12;70.39;100814.50;5045717;28;20500;-84
2021/08/19 01:07:58;;;;;;;4.80;2.70;;;;;;;15.15;70.40;100813.75;5031279;28;20033;-84
2021/08/19 01:10:27;;;;;;;3.70;2.88;;;;;;;15.20;70.39;100815.41;5048379;28;20055;-84
2021/08/19 01:12:54;;;;;;;4.72;2.83;;;;;;;15.22;70.42;100813.88;5064925;28;20148;-84
2021/08/19 01:15:22;;;;;;;6.15;3.50;;;;;;;15.22;70.50;100819.44;5046401;28;20040;-84
2021/08/19 01:18:15;;;;;;;5.60;2.80;;;;;;;15.24;70.21;100813.50;5023150;28;20080;-84
2021/08/19 01:20:42;;;;;;;6.03;3.05;;;;;;;15.28;70.17;100817.13;5060296;28;20443;-83
2021/08/19 01:23:08;;;;;;;5.63;3.20;;;;;;;15.30;70.17;100814.00;5064189;28;20040;-84
2021/08/19 01:25:35;;;;;;;3.95;2.42;;;;;;;15.33;69.81;100807.66;5045578;28;20094;-84
2021/08/19 01:28:02;;;;;;;3.42;2.92;;;;;;;15.33;69.61;100810.47;5046859;28;20032;-83
2021/08/19 01:30:29;;;;;;;5.53;2.70;;;;;;;15.34;69.37;100817.63;5030230;28;20522;-84
2021/08/19 01:32:56;;;;;;;5.20;2.58;;;;;;;15.31;69.47;100808.03;5064594;28;20040;-85
2021/08/19 01:35:28;;;;;;;9.82;2.90;;;;;;;15.27;69.75;100803.59;5063985;28;20044;-84
2021/08/19 01:37:56;;;;;;;5.15;2.88;;;;;;;15.27;69.53;100800.78;5046892;28;20055;-84
2021/08/19 01:40:23;;;;;;;9.40;4.40;;;;;;;15.29;69.59;100802.03;5046724;28;20094;-84
2021/08/19 01:42:50;;;;;;;8.85;3.70;;;;;;;15.23;69.54;100795.97;5045439;28;20040;-85
2021/08/19 01:45:18;;;;;;;5.03;3.13;;;;;;;15.19;69.84;100797.91;5063064;28;20571;-84
2021/08/19 01:47:47;;;;;;;5.47;3.03;;;;;;;15.17;69.75;100782.69;5045067;28;20617;-84
2021/08/19 01:50:14;;;;;;;3.45;2.33;;;;;;;15.21;69.74;100795.53;5045220;28;20064;-85
2021/08/19 01:52:45;;;;;;;4.50;2.25;;;;;;;15.25;69.73;100790.81;5062750;28;20396;-84
2021/08/19 01:55:13;;;;;;;6.60;2.73;;;;;;;15.29;69.53;100787.25;5063572;28;20049;-84
2021/08/19 01:57:39;;;;;;;3.45;2.38;;;;;;;15.31;69.42;100782.09;5045940;28;20297;-84
2021/08/19 02:00:07;;;;;;;4.05;1.90;;;;;;;15.27;69.59;100782.84;5063255;28;20255;-85
2021/08/19 02:02:33;;;;;;;2.50;2.00;;;;;;;15.23;69.59;100776.44;5063652;28;20053;-84
2021/08/19 02:05:01;;;;;;;2.40;2.08;;;;;;;15.25;69.65;100771.28;5063571;28;20036;-84
2021/08/19 02:07:27;;;;;;;3.40;1.75;;;;;;;15.24;69.98;100778.06;5044499;28;20044;-83
2021/08/19 02:09:55;;;;;;;2.38;2.17;;;;;;;15.27;70.11;100773.72;5037591;28;20055;-84
2021/08/19 02:12:22;;;;;;;4.80;2.00;;;;;;;15.27;69.71;100770.09;5044320;28;20050;-84
2021/08/19 02:14:49;;;;;;;3.78;2.03;;;;;;;15.31;69.94;100762.59;5063242;28;20118;-84
2021/08/19 02:17:17;;;;;;;4.93;2.17;;;;;;;15.31;69.98;100773.75;5055297;28;20067;-84
2021/08/19 02:19:43;;;;;;;2.40;2.20;;;;;;;15.27;70.12;100773.72;5046546;28;20131;-83
2021/08/19 02:22:10;;;;;;;3.45;2.08;;;;;;;15.23;70.17;100765.28;5045953;28;20043;-83
2021/08/19 02:24:37;;;;;;;3.13;1.67;;;;;;;15.23;70.01;100762.50;5045109;28;20054;-84
2021/08/19 02:27:05;;;;;;;4.15;1.67;;;;;;;15.24;70.17;100766.91;5038823;28;20044;-84
2021/08/19 02:29:32;;;;;;;2.53;1.98;;;;;;;15.29;69.87;100771.34;5063551;28;20484;-83
2021/08/19 02:31:58;;;;;;;2.30;1.40;;;;;;;15.31;69.66;100757.81;5061409;28;20063;-84
2021/08/19 02:34:25;;;;;;;3.33;2.08;;;;;;;15.30;70.03;100758.19;5045132;28;20392;-84
2021/08/19 02:36:52;;;;;;;3.40;1.88;;;;;;;15.27;69.74;100751.41;5045335;28;20044;-83
2021/08/19 02:39:19;;;;;;;3.00;2.08;;;;;;;15.26;70.08;100755.34;5062809;28;20047;-84
2021/08/19 02:41:45;;;;;;;1.75;1.45;;;;;;;15.23;70.13;100751.34;5054713;28;20395;-84
2021/08/19 02:44:12;;;;;;;2.60;1.73;;;;;;;15.27;70.24;100753.38;5044211;28;20122;-84
2021/08/19 02:46:39;;;;;;;1.55;1.45;;;;;;;15.30;70.19;100747.84;5043950;28;20047;-84
2021/08/19 02:49:06;;;;;;;3.15;2.15;;;;;;;15.32;70.29;100736.31;5063191;28;20037;-85
2021/08/19 02:51:32;;;;;;;2.28;1.30;;;;;;;15.28;70.27;100739.03;5062539;28;20036;-83
2021/08/19 02:53:59;;;;;;;2.08;1.38;;;;;;;15.27;70.34;100742.22;5061618;28;20907;-84
2021/08/19 02:56:27;;;;;;;1.73;1.20;;;;;;;15.27;70.49;100736.63;5044965;28;20040;-84
2021/08/19 02:58:54;;;;;;;2.97;2.13;;;;;;;15.21;70.83;100739.75;5063215;28;20044;-84
2021/08/19 03:01:20;;;;;;;1.38;1.27;;;;;;;15.18;71.08;100743.28;5045267;28;20062;-84
2021/08/19 03:03:48;;;;;;;2.08;1.50;;;;;;;15.18;71.01;100728.53;5044749;28;20048;-84
2021/08/19 03:06:14;;;;;;;1.50;1.23;;;;;;;15.20;70.79;100729.78;5062885;28;20044;-84
2021/08/19 03:08:41;;;;;;;3.03;1.30;;;;;;;15.21;70.76;100723.03;5062774;28;20044;-83
2021/08/19 03:11:08;;;;;;;5.22;2.17;;;;;;;15.19;70.93;100711.44;5063905;28;20036;-83
2021/08/19 03:13:35;;;;;;;2.55;1.30;;;;;;;15.17;71.08;100713.78;5044022;28;20128;-84
2021/08/19 03:16:02;;;;;;;2.33;1.40;;;;;;;15.18;71.33;100709.81;5043830;28;20047;-83
2021/08/19 03:18:29;;;;;;;2.45;1.25;;;;;;;15.20;71.42;100710.25;5045395;28;20044;-84
2021/08/19 03:20:56;;;;;;;2.60;1.50;;;;;;;15.16;71.35;100712.19;5044995;28;20114;-84
2021/08/19 03:23:24;;;;;;;2.33;2.13;;;;;;;15.16;71.52;100695.47;5062211;28;20439;-84
2021/08/19 03:25:51;;;;;;;3.42;2.00;;;;;;;15.15;71.67;100695.81;5044446;28;20036;-84
2021/08/19 03:28:20;;;;;;;2.90;1.52;;;;;;;15.13;71.66;100681.47;5045913;28;20092;-84
2021/08/19 03:30:49;;;;;;;2.72;1.63;;;;;;;15.15;71.71;100682.69;5062353;28;20402;-83
2021/08/19 03:33:17;;;;;;;3.38;1.75;;;;;;;15.13;71.88;100685.06;5063368;28;20442;-84
2021/08/19 03:35:45;;;;;;;1.83;1.30;;;;;;;15.11;72.28;100681.84;5062179;28;20047;-84
2021/08/19 03:38:12;;;;;;;2.15;1.40;;;;;;;15.14;72.29;100689.44;5062873;28;20124;-84
2021/08/19 03:40:39;;;;;;;1.95;1.75;;;;;;;15.15;72.13;100673.50;5062871;28;20037;-84
2021/08/19 03:43:06;;;;;;;2.45;1.83;;;;;;;15.12;72.42;100677.06;5044621;28;20032;-84
2021/08/19 03:45:34;;;;;;;3.08;1.55;;;;;;;15.12;72.64;100675.06;5047268;28;20119;-84
2021/08/19 03:48:01;;;;;;;1.52;1.20;;;;;;;15.13;72.63;100671.13;5066007;28;20033;-83
2021/08/19 03:50:28;;;;;;;4.05;2.00;;;;;;;15.13;72.93;100665.53;5048434;28;20059;-83
2021/08/19 03:52:55;;;;;;;2.60;1.40;;;;;;;15.09;72.98;100661.88;5032148;28;20041;-84
2021/08/19 03:55:22;;;;;;;1.50;1.00;;;;;;;15.10;72.97;100660.72;5031953;28;20468;-83
2021/08/19 03:57:49;;;;;;;1.92;1.20;;;;;;;15.11;73.27;100662.34;5066194;28;20135;-83
2021/08/19 04:00:16;;;;;;;3.22;1.40;;;;;;;15.09;73.25;100656.31;5065199;28;20044;-84
2021/08/19 04:02:46;;;;;;;1.52;1.23;;;;;;;15.12;73.15;100658.34;5043135;28;20036;-85
2021/08/19 04:05:14;;;;;;;2.05;1.42;;;;;;;15.13;73.31;100659.97;5065437;28;20048;-84
2021/08/19 04:07:41;;;;;;;1.75;1.60;;;;;;;15.09;73.20;100652.75;5066736;28;20043;-83
2021/08/19 04:10:09;;;;;;;3.22;1.35;;;;;;;15.08;73.55;100645.53;5057545;28;20140;-85
2021/08/19 04:12:39;;;;;;;1.90;1.25;;;;;;;15.10;73.37;100657.13;5047902;28;20051;-84
2021/08/19 04:15:07;;;;;;;3.55;1.40;;;;;;;15.05;73.61;100661.03;5064675;28;20049;-84
2021/08/19 04:17:34;;;;;;;3.65;1.67;;;;;;;15.03;73.70;100646.69;5066161;28;20036;-84
2021/08/19 04:20:02;;;;;;;3.17;1.58;;;;;;;15.03;74.09;100643.91;5047782;28;20070;-84
2021/08/19 04:22:29;;;;;;;2.53;1.55;;;;;;;15.04;74.21;100639.91;5048203;28;20044;-83
2021/08/19 04:24:57;;;;;;;2.85;1.30;;;;;;;15.00;74.36;100639.06;5065561;28;20163;-84
2021/08/19 04:27:24;;;;;;;3.30;2.03;;;;;;;15.00;74.42;100638.25;5030427;28;20571;-83
2021/08/19 04:29:50;;;;;;;2.97;1.63;;;;;;;14.99;74.46;100640.25;5047664;28;20049;-83
2021/08/19 04:32:17;;;;;;;3.13;1.80;;;;;;;15.00;74.62;100643.84;5065571;28;20036;-83
2021/08/19 04:34:44;;;;;;;1.63;1.33;;;;;;;14.99;74.64;100637.44;5047217;28;20561;-84
2021/08/19 04:37:11;;;;;;;1.83;1.55;;;;;;;15.03;74.64;100646.69;5064898;28;20049;-85
2021/08/19 04:39:38;;;;;;;3.70;1.67;;;;;;;14.99;74.94;100640.25;5048047;28;20198;-84
2021/08/19 04:42:05;;;;;;;3.50;2.00;;;;;;;14.97;75.07;100634.25;5065016;28;20040;-84
2021/08/19 04:44:31;;;;;;;2.70;2.10;;;;;;;14.96;75.08;100642.97;5065256;28;20127;-83
2021/08/19 04:46:59;;;;;;;3.60;2.10;;;;;;;14.91;75.39;100630.16;5046018;28;20063;-83
2021/08/19 04:49:26;;;;;;;2.63;2.15;;;;;;;14.92;75.13;100626.22;5066012;28;20788;-83
2021/08/19 04:51:53;;;;;;;4.10;2.13;;;;;;;14.92;75.52;100631.78;5048233;28;20538;-83
2021/08/19 04:54:20;;;;;;;5.90;2.35;;;;;;;14.91;75.52;100635.75;5064051;28;20048;-83
2021/08/19 04:56:48;;;;;;;2.88;1.88;;;;;;;14.89;75.78;100635.31;5062531;28;20040;-83
2021/08/19 04:59:15;;;;;;;3.70;1.95;;;;;;;14.85;75.83;100628.88;5065569;28;20048;-83
2021/08/19 05:01:43;;;;;;;3.95;2.17;;;;;;;14.84;75.88;100630.09;5064416;28;20050;-83
2021/08/19 05:04:10;;;;;;;3.28;2.13;;;;;;;14.85;76.14;100630.88;5056326;28;20082;-83
2021/08/19 05:06:38;;;;;;;3.70;2.25;;;;;;;14.83;76.32;100630.44;5063297;28;20036;-83
2021/08/19 05:09:06;;;;;;;4.28;1.80;;;;;;;14.81;76.34;100627.22;5062601;28;20488;-83
2021/08/19 05:11:34;;;;;;;3.03;1.65;;;;;;;14.79;76.63;100622.03;5045635;28;20135;-82
2021/08/19 05:14:03;;;;;;;5.38;2.45;;;;;;;14.80;76.54;100622.84;5063691;28;20055;-81
2021/08/19 05:16:31;;;;;;;6.20;2.28;;;;;;;14.81;76.67;100625.25;5045597;28;20041;-82
2021/08/19 05:18:59;;;;;;;3.25;2.05;;;;;;;14.84;76.60;100621.72;5040123;28;20151;-82
2021/08/19 05:21:25;;;;;;;2.80;1.95;;;;;;;14.81;76.75;100619.69;5046146;28;20045;-82
2021/08/19 05:23:52;;;;;;;6.90;2.05;;;;;;;14.81;76.86;100611.31;5064975;28;20373;-81
2021/08/19 05:26:19;;;;;;;2.25;1.55;;;;;;;14.79;76.73;100618.44;5061955;28;20127;-81
2021/08/19 05:28:49;;;;;;;3.17;2.05;;;;;;;14.77;77.24;100602.13;5063931;28;20484;-81
2021/08/19 05:31:17;;;;;;;4.60;2.33;;;;;;;14.77;77.45;100607.69;5062450;28;20040;-82
2021/08/19 05:33:43;;;;;;;4.32;2.53;;;;;;;14.75;77.38;100609.22;5045318;28;20484;-81
2021/08/19 05:36:12;;;;;;;4.32;2.25;;;;;;;14.75;77.84;100601.66;5064288;28;20058;-81
2021/08/19 05:38:42;;;;;;;;;;;;;;;14.71;78.40;100602.81;5064506;28;20755;-82
2021/08/19 05:41:09;;;;;;;3.53;2.17;;;;;;;14.72;78.06;100599.63;5044271;28;20458;-81
2021/08/19 05:43:36;;;;;;;2.17;1.98;;;;;;;14.73;77.99;100594.88;5063946;28;20037;-82
2021/08/19 05:46:03;;;;;;;2.75;2.08;;;;;;;14.76;78.32;100600.50;5045947;28;20042;-82
2021/08/19 05:48:29;;;;;;;8.00;2.33;;;;;;;14.79;78.43;100599.75;5063655;28;20480;-82
2021/08/19 05:50:56;;;;;;;4.45;2.40;;;;;;;14.81;78.41;100591.81;5063617;28;20040;-82
2021/08/19 05:53:23;;;;;;;4.70;1.88;;;;;;;14.82;78.45;100587.03;5044620;28;20475;-82
2021/08/19 05:55:50;;;;;;;3.03;2.65;;;;;;;14.84;78.80;100585.47;5029017;28;20053;-82
2021/08/19 05:58:17;;;;;;;1.85;1.65;;;;;;;14.87;78.94;100583.94;5044177;28;20044;-83
2021/08/19 06:00:48;;;;;;;3.20;2.03;;;;;;;14.86;79.18;100583.13;5046320;28;20110;-82
2021/08/19 06:03:22;;;;;;;3.40;2.10;;;;;;;14.90;79.15;100577.59;5056040;28;20045;-82
2021/08/19 06:05:50;;;;;;;2.22;1.30;;;;;;;14.94;79.21;100570.06;5044584;28;20131;-82
2021/08/19 06:08:18;;;;;;;2.65;1.60;;;;;;;14.98;79.05;100574.53;5061756;28;20103;-82
2021/08/19 06:10:45;;;;;;;2.75;2.38;;;;;;;15.02;78.93;100574.56;5063128;28;20052;-83
2021/08/19 06:13:12;;;;;;;2.22;2.00;;;;;;;15.06;79.00;100569.84;5044447;28;20403;-82
2021/08/19 06:15:39;;;;;;;1.70;1.60;;;;;;;15.08;78.87;100573.84;5062971;28;20476;-83
2021/08/19 06:18:07;;;;;;;2.20;1.45;;;;;;;15.10;78.88;100577.06;5045521;28;20389;-83
2021/08/19 06:20:35;;;;;;;4.28;2.40;;;;;;;15.10;78.92;100576.25;5044724;28;20125;-82
2021/08/19 06:23:02;;;;;;;2.20;1.27;;;;;;;15.11;79.08;100573.09;5062447;28;20040;-82
2021/08/19 06:25:32;;;;;;;1.95;1.50;;;;;;;15.10;78.93;100574.28;5028749;28;20044;-83
2021/08/19 06:27:59;;;;;;;1.50;1.40;;;;;;;15.10;78.91;100577.06;5044384;28;20054;-83
2021/08/19 06:30:26;;;;;;;3.47;1.90;;;;;;;15.13;78.98;100570.72;5062099;28;20184;-82
2021/08/19 06:32:53;;;;;;;3.33;1.80;;;;;;;15.17;79.06;100571.56;5046401;28;20119;-82
2021/08/19 06:35:20;;;;;;;2.40;1.83;;;;;;;15.24;79.13;100577.25;5044401;28;20040;-82
2021/08/19 06:37:47;;;;;;;2.35;1.45;;;;;;;15.30;78.94;100574.09;5027681;28;20411;-82
2021/08/19 06:40:14;;;;;;;5.10;2.08;;;;;;;15.32;78.94;100574.53;5044715;28;20119;-83
2021/08/19 06:42:40;;;;;;;2.55;1.77;;;;;;;15.30;78.92;100563.75;5044861;28;20047;-82
2021/08/19 06:45:08;;;;;;;3.03;2.15;;;;;;;15.27;78.97;100568.09;5026717;28;20127;-82
2021/08/19 06:47:34;;;;;;;3.63;2.30;;;;;;;15.30;79.14;100560.16;5062939;28;20037;-81
2021/08/19 06:50:01;;;;;;;4.07;2.25;;;;;;;15.38;79.18;100567.44;5045442;28;20127;-83
2021/08/19 06:52:29;;;;;;;2.60;2.28;;;;;;;15.42;79.23;100565.47;5061654;28;20066;-81
2021/08/19 06:54:58;;;;;;;3.20;2.72;;;;;;;15.45;79.28;100570.28;5027063;28;20139;-82
2021/08/19 06:57:24;;;;;;;2.50;2.17;;;;;;;15.46;79.51;100563.56;5062090;28;20047;-82
2021/08/19 06:59:51;;;;;;;5.68;3.30;;;;;;;15.52;79.39;100564.78;5045530;28;20093;-82
2021/08/19 07:02:19;;;;;;;3.90;2.40;;;;;;;15.56;79.69;100562.88;5042454;28;20102;-84
2021/08/19 07:04:46;;;;;;;5.22;2.60;;;;;;;15.62;79.69;100566.91;5044151;28;20062;-82
2021/08/19 07:07:13;;;;;;;6.15;2.35;;;;;;;15.63;79.91;100566.53;5062245;28;20040;-82
2021/08/19 07:09:40;;;;;;;4.18;3.10;;;;;;;15.69;79.86;100565.00;5044480;28;20049;-82
2021/08/19 07:12:06;;;;;;;4.15;2.72;;;;;;;15.76;79.94;100561.47;5061325;28;20032;-83
2021/08/19 07:14:33;;;;;;;4.13;2.50;;;;;;;15.85;79.77;100559.16;5044355;28;20049;-82
2021/08/19 07:17:03;;;;;;;3.17;2.53;;;;;;;15.98;79.77;100566.06;5061884;28;20043;-82
2021/08/19 07:19:30;;;;;;;3.95;2.50;;;;;;;16.13;79.65;100555.78;5046494;28;20557;-84
2021/08/19 07:21:57;;;;;;;5.53;3.05;;;;;;;16.30;79.51;100560.72;5048906;28;20052;-82
2021/08/19 07:24:23;;;;;;;5.47;2.22;;;;;;;16.51;79.43;100566.47;5030643;28;20506;-82
2021/08/19 07:26:50;;;;;;;3.45;2.53;;;;;;;16.73;79.40;100568.19;5046960;28;20063;-82
2021/08/19 07:29:17;;;;;;;4.40;2.20;;;;;;;16.97;79.61;100561.94;5065666;28;20373;-82
2021/08/19 07:31:44;;;;;;;4.57;2.20;;;;;;;17.16;79.27;100563.59;5064679;28;20060;-81
2021/08/19 07:34:13;;;;;;;4.40;2.55;;;;;;;17.28;78.92;100554.88;5045819;28;20044;-82
2021/08/19 07:36:40;;;;;;;4.30;2.40;;;;;;;17.41;78.90;100553.31;5064961;28;20032;-82
2021/08/19 07:39:09;;;;;;;3.60;2.45;;;;;;;17.52;78.21;100554.16;5046322;28;20059;-82
2021/08/19 07:41:39;;;;;;;3.65;2.40;;;;;;;17.61;77.96;100562.97;5058478;28;20044;-82
2021/08/19 07:44:06;;;;;;;3.10;2.25;;;;;;;17.72;77.70;100554.59;5065300;28;20040;-83
2021/08/19 07:46:33;;;;;;;4.35;3.28;;;;;;;17.62;76.93;100560.97;5065104;28;20395;-83
2021/08/19 07:49:02;;;;;;;3.50;2.88;;;;;;;17.50;76.60;100555.75;5048651;28;20053;-83
2021/08/19 07:51:34;;;;;;;9.02;3.28;;;;;;;17.33;76.36;100559.28;5066960;28;20040;-85
2021/08/19 07:54:01;;;;;;;;;;;;;;;17.25;76.45;100560.44;5063883;28;20043;-82
2021/08/19 07:56:27;;;;;;;2.75;2.40;;;;;;;17.24;76.29;100559.63;5065295;28;19928;-83
2021/08/19 07:58:54;;;;;;;3.38;2.60;;;;;;;17.30;76.18;100560.06;5046825;28;20063;-83
2021/08/19 08:01:22;;;;;;;4.15;2.65;;;;;;;17.34;76.42;100553.28;5064811;28;20044;-82
2021/08/19 08:03:50;;;;;;;3.80;2.40;;;;;;;17.39;76.48;100566.09;5047367;28;20098;-84
2021/08/19 08:06:16;;;;;;;3.17;2.08;;;;;;;17.38;76.46;100556.91;5064613;28;20589;-83
2021/08/19 08:08:46;;;;;;;3.25;1.85;;;;;;;17.33;76.33;100548.88;5048500;28;20040;-84
2021/08/19 08:11:13;;;;;;;2.40;2.20;;;;;;;17.27;76.46;100558.84;5064438;28;20132;-84
2021/08/19 08:13:40;;;;;;;4.05;2.33;;;;;;;17.22;76.41;100562.03;5044136;28;20126;-86
2021/08/19 08:16:07;;;;;;;2.33;2.08;;;;;;;17.19;76.48;100554.44;5058882;28;20040;-86
2021/08/19 08:18:34;;;;;;;3.30;2.50;;;;;;;17.18;76.54;100555.66;5064304;28;20559;-86
2021/08/19 08:21:03;;;;;;;5.65;2.58;;;;;;;17.14;76.52;100560.41;5064795;28;20068;-84
2021/08/19 08:23:35;;;;;;;4.25;2.70;;;;;;;17.09;76.96;100562.78;5063695;28;20127;-85
2021/08/19 08:26:05;;;;;;;3.75;2.47;;;;;;;17.00;77.41;100561.16;5062624;28;20055;-87
2021/08/19 08:28:32;;;;;;;2.67;2.13;;;;;;;17.02;77.45;100569.16;5064774;28;20047;-86
2021/08/19 08:31:02;;;;;;;3.72;2.80;;;;;;;17.06;77.62;100558.78;5046218;28;20047;-84
2021/08/19 08:33:32;;;;;;;6.20;3.53;;;;;;;17.08;77.60;100561.97;5048068;28;20075;-85
2021/08/19 08:35:59;;;;;;;5.50;3.80;;;;;;;17.00;77.97;100560.34;5065663;28;20063;-86
2021/08/19 08:38:27;;;;;;;5.53;3.95;;;;;;;16.95;78.28;100563.53;5063103;28;20054;-84
2021/08/19 08:40:55;;;;;;;6.50;3.30;;;;;;;16.92;78.21;100559.50;5064356;28;20049;-85
2021/08/19 08:43:26;;;;;;;8.57;4.27;;;;;;;16.90;78.57;100555.50;5067579;28;20048;-85
2021/08/19 08:45:54;;;;;;;8.00;4.32;;;;;;;16.86;78.92;100565.88;5046766;28;20051;-85
2021/08/19 08:48:24;;;;;;;12.50;4.40;;;;;;;16.86;79.11;100560.31;5065441;28;20048;-84
2021/08/19 08:50:53;;;;;;;6.30;4.13;;;;;;;16.88;79.29;100563.50;5045925;28;20496;-83
2021/08/19 08:53:21;;;;;;;5.75;4.38;;;;;;;16.94;79.36;100562.72;5048278;28;20052;-85
2021/08/19 08:55:48;;;;;;;5.78;4.55;;;;;;;16.98;79.46;100559.94;5024611;28;20135;-85
2021/08/19 08:58:16;;;;;;;4.72;4.22;;;;;;;17.05;79.60;100551.56;5047116;28;20391;-85
2021/08/19 09:00:45;;;;;;;6.85;4.47;;;;;;;17.08;79.78;100550.78;5065435;28;20067;-85
2021/08/19 09:03:15;;;;;;;4.50;4.10;;;;;;;17.08;80.00;100550.78;5046808;28;20048;-85
2021/08/19 09:05:44;;;;;;;4.78;4.28;;;;;;;17.07;80.01;100554.81;5065596;28;20036;-85
2021/08/19 09:08:20;;;;;;;6.10;3.67;;;;;;;17.09;80.03;100555.19;5064005;28;20076;-85
2021/08/19 09:10:49;;;;;;;4.57;4.15;;;;;;;17.13;79.99;100550.41;5046625;28;20369;-85
2021/08/19 09:13:20;;;;;;;5.75;4.63;;;;;;;17.15;80.27;100559.22;5057311;28;20464;-85
2021/08/19 09:15:48;;;;;;;6.50;3.90;;;;;;;17.20;80.32;100561.63;5064452;28;20462;-85
2021/08/19 09:18:29;;;;;;;4.50;3.88;;;;;;;17.17;80.23;100570.81;5047318;28;20040;-85
2021/08/19 09:20:56;;;;;;;5.60;3.55;;;;;;;17.11;80.07;100564.00;5044916;28;20131;-85
2021/08/19 09:23:23;;;;;;;5.45;3.90;;;;;;;17.04;79.71;100566.78;5065531;28;20044;-84
2021/08/19 09:25:50;;;;;;;5.15;4.28;;;;;;;17.00;79.66;100571.53;5047146;28;20109;-85
2021/08/19 09:28:28;;;;;;;6.25;3.80;;;;;;;16.90;79.94;100567.50;5063885;28;20044;-86
2021/08/19 09:31:08;;;;;;;4.75;3.45;;;;;;;16.86;79.82;100571.47;5064949;28;20125;-86
2021/08/19 09:33:39;;;;;;;5.57;3.70;;;;;;;16.83;79.74;100572.25;5045751;28;20174;-86
2021/08/19 09:36:07;;;;;;;5.93;3.85;;;;;;;16.80;79.54;100578.63;5040105;28;20458;-87
2021/08/19 09:38:38;;;;;;;5.90;4.25;;;;;;;16.77;79.62;100568.22;5064316;28;20115;-86
2021/08/19 09:41:17;;;;;;;5.57;4.68;;;;;;;16.74;79.97;100574.59;5064022;28;20103;-84
2021/08/19 09:43:51;;;;;;;9.52;5.53;;;;;;;16.74;79.81;100574.59;5046275;28;20032;-85
2021/08/19 09:46:35;;;;;;;8.73;5.50;;;;;;;16.73;80.16;100568.19;5045649;28;20148;-85
2021/08/19 09:49:21;;;;;;;6.97;4.43;;;;;;;16.74;80.02;100577.41;5057155;28;20048;-86
2021/08/19 09:52:00;;;;;;;6.93;3.92;;;;;;;16.78;79.99;100586.63;5043622;28;20052;-86
2021/08/19 09:54:29;;;;;;;8.55;5.07;;;;;;;16.80;79.54;100575.84;5045199;28;20511;-85
2021/08/19 09:56:56;;;;;;;10.55;4.45;;;;;;;16.76;79.91;100572.22;5056579;28;20480;-85
2021/08/19 09:59:28;;;;;;;6.47;4.95;;;;;;;16.71;79.99;100570.59;5043880;28;20067;-85
2021/08/19 10:01:57;;;;;;;8.63;4.43;;;;;;;16.68;80.06;100573.38;5044462;28;20080;-85
2021/08/19 10:04:25;;;;;;;4.82;2.85;;;;;;;16.73;80.06;100564.63;5045019;28;20044;-85
2021/08/19 10:06:56;;;;;;;5.95;4.07;;;;;;;16.84;80.05;100562.66;5058286;28;20040;-84
2021/08/19 10:09:24;;;;;;;8.25;3.65;;;;;;;16.96;79.88;100563.16;5044863;28;20048;-81
2021/08/19 10:11:54;;;;;;;7.18;3.92;;;;;;;17.09;80.13;100558.00;5062696;28;20058;-81
2021/08/19 10:14:24;;;;;;;3.97;2.75;;;;;;;17.20;80.26;100553.25;5062603;28;20555;-83
2021/08/19 10:16:52;;;;;;;3.00;2.70;;;;;;;17.33;80.20;100557.28;5062369;28;20151;-80
2021/08/19 10:19:33;;;;;;;4.20;3.17;;;;;;;17.77;80.02;100559.00;5043877;28;20101;-83
2021/08/19 10:22:12;;;;;;;3.78;2.83;;;;;;;18.06;79.70;100555.00;5062589;28;20072;-83
2021/08/19 10:24:40;;;;;;;6.32;3.70;;;;;;;18.23;79.48;100555.03;5062681;28;20929;-81
2021/08/19 10:27:16;;;;;;;5.15;3.50;;;;;;;18.36;78.62;100558.19;5062805;28;20937;-82
2021/08/19 10:29:54;;;;;;;4.22;3.60;;;;;;;18.45;78.70;100561.41;5045261;28;20123;-83
2021/08/19 10:32:32;;;;;;;4.97;3.55;;;;;;;18.58;78.28;100551.41;5045127;28;20049;-83
2021/08/19 10:35:09;;;;;;;7.18;3.45;;;;;;;18.69;77.80;100545.75;5045106;28;20047;-82
2021/08/19 10:37:45;;;;;;;3.78;3.40;;;;;;;18.83;77.45;100543.69;5044840;28;20029;-83
2021/08/19 10:40:19;;;;;;;4.68;3.33;;;;;;;19.00;77.30;100547.66;5055790;28;20466;-83
2021/08/19 10:43:10;;;;;;;9.98;3.53;;;;;;;19.21;76.88;100536.31;5044754;28;20055;-83
2021/08/19 10:45:41;;;;;;;4.40;3.65;;;;;;;19.32;77.10;100541.88;5061300;28;20041;-81
2021/08/19 10:48:08;;;;;;;7.43;4.33;;;;;;;19.32;76.84;100541.88;5055290;28;20495;-82
2021/08/19 10:50:47;;;;;;;4.68;3.20;;;;;;;19.27;75.59;100536.69;5029397;28;20046;-82
2021/08/19 10:53:22;;;;;;;5.15;3.67;;;;;;;19.19;75.78;100543.56;5047413;28;20116;-81
2021/08/19 10:55:54;;;;;;;3.80;3.47;;;;;;;19.14;75.65;100541.97;5069051;28;20040;-82
2021/08/19 10:58:26;;;;;;;4.15;3.65;;;;;;;19.21;75.89;100539.13;5044055;28;20048;-82
2021/08/19 11:00:59;;;;;;;4.22;3.53;;;;;;;19.26;75.45;100540.72;5027834;28;20121;-82
2021/08/19 11:03:35;;;;;;;3.75;3.40;;;;;;;19.37;75.48;100544.25;5071089;28;20040;-82
2021/08/19 11:06:10;;;;;;;4.95;3.10;;;;;;;19.41;75.54;100545.06;5052305;28;20059;-82
2021/08/19 11:08:38;;;;;;;4.25;2.78;;;;;;;19.40;75.09;100547.09;5063638;28;20045;-82
2021/08/19 11:11:08;;;;;;;3.40;3.05;;;;;;;19.39;74.80;100539.06;5051522;28;20562;-83
2021/08/19 11:13:35;;;;;;;4.38;3.30;;;;;;;19.46;74.74;100550.25;5069143;28;20052;-82
2021/08/19 11:16:12;;;;;;;4.90;3.42;;;;;;;19.50;74.46;100542.59;5050258;28;20040;-83
2021/08/19 11:18:40;;;;;;;4.82;3.50;;;;;;;19.56;74.21;100543.78;5051829;28;20119;-82
2021/08/19 11:21:10;;;;;;;3.67;3.22;;;;;;;19.64;74.07;100542.53;5070487;28;20098;-79
2021/08/19 11:23:40;;;;;;;3.17;2.50;;;;;;;19.66;74.28;100540.09;5069333;28;20040;-84
2021/08/19 11:26:09;;;;;;;6.03;3.47;;;;;;;19.79;73.95;100534.78;5068551;28;20167;-83
2021/08/19 11:28:58;;;;;;;3.00;2.80;;;;;;;20.00;73.84;100531.81;5068582;28;20037;-82
2021/08/19 11:31:25;;;;;;;3.22;2.70;;;;;;;20.23;73.87;100532.00;5061815;28;20514;-83
2021/08/19 11:34:00;;;;;;;4.07;3.10;;;;;;;20.40;72.82;100533.88;5051650;28;20123;-82